sensor_id;sensor_type;location;lat;lon;timestamp;P1;durP1;ratioP1;P2;durP2;ratioP2
19617;SDS011;9956;51.006;13.670;2023-05-18T00:03:41;9.32;;;2.50;;
19617;SDS011;9956;51.006;13.670;2023-05-18T00:08:42;9.80;;;2.10;;
19617;SDS011;9956;51.006;13.670;2023-05-18T00:13:42;6.88;;;1.92;;
19617;SDS011;9956;51.006;13.670;2023-05-18T00:18:43;6.72;;;2.67;;
19617;SDS011;9956;51.006;13.670;2023-05-18T00:23:44;10.18;;;3.13;;
19617;SDS011;9956;51.006;13.670;2023-05-18T00:28:48;10.20;;;2.97;;
19617;SDS011;9956;51.006;13.670;2023-05-18T00:33:48;12.95;;;3.20;;
19617;SDS011;9956;51.006;13.670;2023-05-18T00:38:49;6.18;;;2.75;;
19617;SDS011;9956;51.006;13.670;2023-05-18T00:43:49;6.45;;;2.55;;
19617;SDS011;9956;51.006;13.670;2023-05-18T00:48:50;6.80;;;2.70;;
19617;SDS011;9956;51.006;13.670;2023-05-18T00:53:52;9.00;;;2.63;;
19617;SDS011;9956;51.006;13.670;2023-05-18T00:58:53;6.25;;;3.30;;
19617;SDS011;9956;51.006;13.670;2023-05-18T01:03:57;8.95;;;3.53;;
19617;SDS011;9956;51.006;13.670;2023-05-18T01:09:01;9.02;;;3.78;;
19617;SDS011;9956;51.006;13.670;2023-05-18T01:14:17;8.00;;;3.70;;
19617;SDS011;9956;51.006;13.670;2023-05-18T01:24:51;6.50;;;3.03;;
19617;SDS011;9956;51.006;13.670;2023-05-18T01:30:16;9.00;;;3.55;;
19617;SDS011;9956;51.006;13.670;2023-05-18T01:35:18;6.97;;;3.55;;
19617;SDS011;9956;51.006;13.670;2023-05-18T01:40:19;6.45;;;3.35;;
19617;SDS011;9956;51.006;13.670;2023-05-18T01:45:20;13.32;;;8.63;;
19617;SDS011;9956;51.006;13.670;2023-05-18T01:50:30;28.10;;;24.00;;
19617;SDS011;9956;51.006;13.670;2023-05-18T01:55:36;27.38;;;24.15;;
19617;SDS011;9956;51.006;13.670;2023-05-18T02:00:38;16.52;;;14.48;;
19617;SDS011;9956;51.006;13.670;2023-05-18T02:05:38;17.42;;;14.77;;
19617;SDS011;9956;51.006;13.670;2023-05-18T02:10:39;20.15;;;13.93;;
19617;SDS011;9956;51.006;13.670;2023-05-18T02:15:41;14.95;;;11.48;;
19617;SDS011;9956;51.006;13.670;2023-05-18T02:20:44;17.05;;;10.32;;
19617;SDS011;9956;51.006;13.670;2023-05-18T02:25:48;11.90;;;6.97;;
19617;SDS011;9956;51.006;13.670;2023-05-18T02:30:48;10.30;;;6.57;;
19617;SDS011;9956;51.006;13.670;2023-05-18T02:35:49;8.82;;;5.10;;
19617;SDS011;9956;51.006;13.670;2023-05-18T02:40:51;10.35;;;6.15;;
19617;SDS011;9956;51.006;13.670;2023-05-18T02:45:51;11.63;;;6.82;;
19617;SDS011;9956;51.006;13.670;2023-05-18T02:50:52;10.20;;;6.90;;
19617;SDS011;9956;51.006;13.670;2023-05-18T02:55:53;13.95;;;6.28;;
19617;SDS011;9956;51.006;13.670;2023-05-18T03:01:01;10.52;;;5.47;;
19617;SDS011;9956;51.006;13.670;2023-05-18T03:06:11;15.48;;;4.93;;
19617;SDS011;9956;51.006;13.670;2023-05-18T03:11:13;9.73;;;5.00;;
19617;SDS011;9956;51.006;13.670;2023-05-18T03:16:14;10.00;;;5.28;;
19617;SDS011;9956;51.006;13.670;2023-05-18T03:21:15;7.95;;;4.90;;
19617;SDS011;9956;51.006;13.670;2023-05-18T03:26:15;9.88;;;5.00;;
19617;SDS011;9956;51.006;13.670;2023-05-18T03:31:17;9.93;;;5.20;;
19617;SDS011;9956;51.006;13.670;2023-05-18T03:36:18;9.95;;;6.10;;
19617;SDS011;9956;51.006;13.670;2023-05-18T03:41:21;12.70;;;7.20;;
19617;SDS011;9956;51.006;13.670;2023-05-18T03:46:23;14.25;;;7.25;;
19617;SDS011;9956;51.006;13.670;2023-05-18T03:51:23;13.40;;;7.07;;
19617;SDS011;9956;51.006;13.670;2023-05-18T03:56:26;14.38;;;8.45;;
19617;SDS011;9956;51.006;13.670;2023-05-18T04:01:26;11.55;;;7.13;;
19617;SDS011;9956;51.006;13.670;2023-05-18T04:06:29;13.82;;;6.88;;
19617;SDS011;9956;51.006;13.670;2023-05-18T04:11:30;9.38;;;6.45;;
19617;SDS011;9956;51.006;13.670;2023-05-18T04:16:30;9.82;;;5.10;;
19617;SDS011;9956;51.006;13.670;2023-05-18T04:21:31;11.55;;;5.30;;
19617;SDS011;9956;51.006;13.670;2023-05-18T04:26:35;11.68;;;5.72;;
19617;SDS011;9956;51.006;13.670;2023-05-18T04:31:38;8.55;;;5.43;;
19617;SDS011;9956;51.006;13.670;2023-05-18T04:36:43;10.55;;;5.60;;
19617;SDS011;9956;51.006;13.670;2023-05-18T04:41:44;7.70;;;4.75;;
19617;SDS011;9956;51.006;13.670;2023-05-18T04:46:51;9.98;;;4.88;;
19617;SDS011;9956;51.006;13.670;2023-05-18T04:51:53;10.73;;;5.55;;
19617;SDS011;9956;51.006;13.670;2023-05-18T04:56:59;8.30;;;5.38;;
19617;SDS011;9956;51.006;13.670;2023-05-18T05:02:04;10.52;;;5.50;;
19617;SDS011;9956;51.006;13.670;2023-05-18T05:07:05;10.93;;;5.40;;
19617;SDS011;9956;51.006;13.670;2023-05-18T05:12:06;8.48;;;5.97;;
19617;SDS011;9956;51.006;13.670;2023-05-18T05:17:07;17.08;;;7.93;;
19617;SDS011;9956;51.006;13.670;2023-05-18T05:22:08;16.42;;;8.05;;
19617;SDS011;9956;51.006;13.670;2023-05-18T05:27:08;17.38;;;7.95;;
19617;SDS011;9956;51.006;13.670;2023-05-18T05:32:10;18.63;;;7.72;;
19617;SDS011;9956;51.006;13.670;2023-05-18T05:37:11;15.93;;;7.95;;
19617;SDS011;9956;51.006;13.670;2023-05-18T05:42:12;13.73;;;6.30;;
19617;SDS011;9956;51.006;13.670;2023-05-18T05:47:14;11.85;;;5.80;;
19617;SDS011;9956;51.006;13.670;2023-05-18T05:52:16;10.55;;;5.53;;
19617;SDS011;9956;51.006;13.670;2023-05-18T05:57:16;9.88;;;4.13;;
19617;SDS011;9956;51.006;13.670;2023-05-18T06:02:18;7.50;;;3.60;;
19617;SDS011;9956;51.006;13.670;2023-05-18T06:07:19;7.03;;;3.42;;
19617;SDS011;9956;51.006;13.670;2023-05-18T06:12:19;9.80;;;4.20;;
19617;SDS011;9956;51.006;13.670;2023-05-18T06:17:20;8.90;;;3.50;;
19617;SDS011;9956;51.006;13.670;2023-05-18T06:22:21;6.88;;;2.80;;
19617;SDS011;9956;51.006;13.670;2023-05-18T06:27:42;5.40;;;3.15;;
19617;SDS011;9956;51.006;13.670;2023-05-18T06:32:53;7.10;;;2.70;;
19617;SDS011;9956;51.006;13.670;2023-05-18T06:37:54;5.00;;;2.42;;
19617;SDS011;9956;51.006;13.670;2023-05-18T06:42:54;9.45;;;2.80;;
19617;SDS011;9956;51.006;13.670;2023-05-18T06:48:00;7.95;;;2.40;;
19617;SDS011;9956;51.006;13.670;2023-05-18T06:53:00;7.35;;;2.30;;
19617;SDS011;9956;51.006;13.670;2023-05-18T06:58:02;6.68;;;2.72;;
19617;SDS011;9956;51.006;13.670;2023-05-18T07:03:02;7.85;;;2.28;;
19617;SDS011;9956;51.006;13.670;2023-05-18T07:08:03;6.70;;;2.03;;
19617;SDS011;9956;51.006;13.670;2023-05-18T07:13:04;8.05;;;2.10;;
19617;SDS011;9956;51.006;13.670;2023-05-18T07:18:05;5.90;;;2.22;;
19617;SDS011;9956;51.006;13.670;2023-05-18T07:23:06;6.88;;;2.17;;
19617;SDS011;9956;51.006;13.670;2023-05-18T07:28:06;7.30;;;2.20;;
19617;SDS011;9956;51.006;13.670;2023-05-18T07:33:07;4.38;;;2.10;;
19617;SDS011;9956;51.006;13.670;2023-05-18T07:38:07;6.07;;;1.92;;
19617;SDS011;9956;51.006;13.670;2023-05-18T07:43:08;8.07;;;1.83;;
19617;SDS011;9956;51.006;13.670;2023-05-18T07:48:09;5.47;;;1.83;;
19617;SDS011;9956;51.006;13.670;2023-05-18T07:53:10;4.22;;;1.88;;
19617;SDS011;9956;51.006;13.670;2023-05-18T07:58:10;6.88;;;2.13;;
19617;SDS011;9956;51.006;13.670;2023-05-18T08:03:10;8.40;;;2.10;;
19617;SDS011;9956;51.006;13.670;2023-05-18T08:08:11;8.52;;;1.80;;
19617;SDS011;9956;51.006;13.670;2023-05-18T08:13:14;4.78;;;1.50;;
19617;SDS011;9956;51.006;13.670;2023-05-18T08:18:14;3.42;;;1.77;;
19617;SDS011;9956;51.006;13.670;2023-05-18T08:23:15;9.55;;;2.00;;
19617;SDS011;9956;51.006;13.670;2023-05-18T08:28:15;7.60;;;2.08;;
19617;SDS011;9956;51.006;13.670;2023-05-18T08:33:16;4.20;;;1.55;;
19617;SDS011;9956;51.006;13.670;2023-05-18T08:38:16;6.00;;;1.73;;
19617;SDS011;9956;51.006;13.670;2023-05-18T08:43:20;4.07;;;1.40;;
19617;SDS011;9956;51.006;13.670;2023-05-18T08:48:22;6.82;;;1.70;;
19617;SDS011;9956;51.006;13.670;2023-05-18T08:53:23;7.53;;;1.83;;
19617;SDS011;9956;51.006;13.670;2023-05-18T08:58:31;6.47;;;1.45;;
19617;SDS011;9956;51.006;13.670;2023-05-18T09:03:35;5.85;;;1.65;;
19617;SDS011;9956;51.006;13.670;2023-05-18T09:08:37;5.00;;;1.63;;
19617;SDS011;9956;51.006;13.670;2023-05-18T09:13:38;4.50;;;1.50;;
19617;SDS011;9956;51.006;13.670;2023-05-18T09:18:38;5.45;;;2.00;;
19617;SDS011;9956;51.006;13.670;2023-05-18T09:23:39;6.28;;;2.08;;
19617;SDS011;9956;51.006;13.670;2023-05-18T09:28:42;5.53;;;1.80;;
19617;SDS011;9956;51.006;13.670;2023-05-18T09:33:43;5.15;;;1.98;;
19617;SDS011;9956;51.006;13.670;2023-05-18T09:38:45;5.75;;;2.17;;
19617;SDS011;9956;51.006;13.670;2023-05-18T09:43:48;5.40;;;1.90;;
19617;SDS011;9956;51.006;13.670;2023-05-18T09:48:51;6.85;;;1.83;;
19617;SDS011;9956;51.006;13.670;2023-05-18T09:53:54;6.90;;;1.80;;
19617;SDS011;9956;51.006;13.670;2023-05-18T09:58:55;4.97;;;1.98;;
19617;SDS011;9956;51.006;13.670;2023-05-18T10:04:00;5.75;;;1.65;;
19617;SDS011;9956;51.006;13.670;2023-05-18T10:09:02;6.63;;;2.10;;
19617;SDS011;9956;51.006;13.670;2023-05-18T10:14:14;4.80;;;1.70;;
19617;SDS011;9956;51.006;13.670;2023-05-18T10:19:15;4.18;;;1.80;;
19617;SDS011;9956;51.006;13.670;2023-05-18T10:24:15;6.25;;;1.73;;
19617;SDS011;9956;51.006;13.670;2023-05-18T10:29:18;4.93;;;1.83;;
19617;SDS011;9956;51.006;13.670;2023-05-18T10:34:18;7.88;;;1.75;;
19617;SDS011;9956;51.006;13.670;2023-05-18T10:39:21;4.45;;;1.67;;
19617;SDS011;9956;51.006;13.670;2023-05-18T10:44:22;4.05;;;1.70;;
19617;SDS011;9956;51.006;13.670;2023-05-18T10:49:24;6.50;;;1.50;;
19617;SDS011;9956;51.006;13.670;2023-05-18T10:54:25;4.78;;;1.67;;
19617;SDS011;9956;51.006;13.670;2023-05-18T10:59:26;5.55;;;1.60;;
19617;SDS011;9956;51.006;13.670;2023-05-18T11:04:27;5.07;;;1.70;;
19617;SDS011;9956;51.006;13.670;2023-05-18T11:09:28;3.92;;;1.73;;
19617;SDS011;9956;51.006;13.670;2023-05-18T11:14:29;5.85;;;1.58;;
19617;SDS011;9956;51.006;13.670;2023-05-18T11:19:31;3.70;;;1.63;;
19617;SDS011;9956;51.006;13.670;2023-05-18T11:24:32;5.35;;;1.48;;
19617;SDS011;9956;51.006;13.670;2023-05-18T11:29:42;6.07;;;2.05;;
19617;SDS011;9956;51.006;13.670;2023-05-18T11:34:51;6.15;;;1.65;;
19617;SDS011;9956;51.006;13.670;2023-05-18T11:39:53;5.35;;;1.48;;
19617;SDS011;9956;51.006;13.670;2023-05-18T11:44:54;4.15;;;1.67;;
19617;SDS011;9956;51.006;13.670;2023-05-18T11:49:55;4.40;;;1.65;;
19617;SDS011;9956;51.006;13.670;2023-05-18T11:55:02;4.28;;;1.45;;
19617;SDS011;9956;51.006;13.670;2023-05-18T12:00:07;4.75;;;1.10;;
19617;SDS011;9956;51.006;13.670;2023-05-18T12:05:16;7.00;;;1.83;;
19617;SDS011;9956;51.006;13.670;2023-05-18T12:10:16;7.90;;;1.90;;
19617;SDS011;9956;51.006;13.670;2023-05-18T12:15:19;3.95;;;1.52;;
19617;SDS011;9956;51.006;13.670;2023-05-18T12:20:21;8.40;;;1.50;;
19617;SDS011;9956;51.006;13.670;2023-05-18T12:25:25;5.57;;;1.60;;
19617;SDS011;9956;51.006;13.670;2023-05-18T12:30:27;4.18;;;1.05;;
19617;SDS011;9956;51.006;13.670;2023-05-18T12:35:34;5.97;;;1.55;;
19617;SDS011;9956;51.006;13.670;2023-05-18T12:40:35;5.85;;;1.45;;
19617;SDS011;9956;51.006;13.670;2023-05-18T12:45:43;5.40;;;1.35;;
19617;SDS011;9956;51.006;13.670;2023-05-18T12:50:47;4.15;;;1.40;;
19617;SDS011;9956;51.006;13.670;2023-05-18T12:55:58;3.58;;;1.27;;
19617;SDS011;9956;51.006;13.670;2023-05-18T13:01:05;4.55;;;1.48;;
19617;SDS011;9956;51.006;13.670;2023-05-18T13:06:25;4.32;;;1.48;;
19617;SDS011;9956;51.006;13.670;2023-05-18T13:11:26;5.50;;;1.80;;
19617;SDS011;9956;51.006;13.670;2023-05-18T13:16:27;5.00;;;1.92;;
19617;SDS011;9956;51.006;13.670;2023-05-18T13:21:29;4.05;;;1.20;;
19617;SDS011;9956;51.006;13.670;2023-05-18T13:26:29;5.07;;;1.40;;
19617;SDS011;9956;51.006;13.670;2023-05-18T13:31:30;3.10;;;1.38;;
19617;SDS011;9956;51.006;13.670;2023-05-18T13:36:30;5.65;;;1.50;;
19617;SDS011;9956;51.006;13.670;2023-05-18T13:41:34;4.55;;;1.42;;
19617;SDS011;9956;51.006;13.670;2023-05-18T13:46:35;7.55;;;1.50;;
19617;SDS011;9956;51.006;13.670;2023-05-18T13:51:36;5.18;;;1.90;;
19617;SDS011;9956;51.006;13.670;2023-05-18T13:56:37;5.55;;;1.60;;
19617;SDS011;9956;51.006;13.670;2023-05-18T14:01:37;3.88;;;1.60;;
19617;SDS011;9956;51.006;13.670;2023-05-18T14:06:41;3.33;;;1.55;;
19617;SDS011;9956;51.006;13.670;2023-05-18T14:11:41;12.48;;;2.40;;
19617;SDS011;9956;51.006;13.670;2023-05-18T14:16:42;2.97;;;1.38;;
19617;SDS011;9956;51.006;13.670;2023-05-18T14:21:42;3.30;;;1.85;;
19617;SDS011;9956;51.006;13.670;2023-05-18T14:26:43;5.95;;;2.03;;
19617;SDS011;9956;51.006;13.670;2023-05-18T14:31:43;3.55;;;1.77;;
19617;SDS011;9956;51.006;13.670;2023-05-18T14:36:43;3.47;;;1.50;;
19617;SDS011;9956;51.006;13.670;2023-05-18T14:41:44;3.85;;;1.83;;
19617;SDS011;9956;51.006;13.670;2023-05-18T14:46:44;3.83;;;1.65;;
19617;SDS011;9956;51.006;13.670;2023-05-18T14:51:51;4.75;;;1.70;;
19617;SDS011;9956;51.006;13.670;2023-05-18T14:56:51;3.78;;;1.60;;
19617;SDS011;9956;51.006;13.670;2023-05-18T15:01:52;3.47;;;1.70;;
19617;SDS011;9956;51.006;13.670;2023-05-18T15:06:52;2.95;;;1.30;;
19617;SDS011;9956;51.006;13.670;2023-05-18T15:11:53;5.93;;;1.65;;
19617;SDS011;9956;51.006;13.670;2023-05-18T15:16:53;5.57;;;1.40;;
19617;SDS011;9956;51.006;13.670;2023-05-18T15:21:54;5.72;;;1.70;;
19617;SDS011;9956;51.006;13.670;2023-05-18T15:26:54;4.95;;;1.70;;
19617;SDS011;9956;51.006;13.670;2023-05-18T15:31:55;3.38;;;1.65;;
19617;SDS011;9956;51.006;13.670;2023-05-18T15:36:55;4.07;;;1.52;;
19617;SDS011;9956;51.006;13.670;2023-05-18T15:41:56;3.22;;;1.70;;
19617;SDS011;9956;51.006;13.670;2023-05-18T15:46:56;12.65;;;11.35;;
19617;SDS011;9956;51.006;13.670;2023-05-18T15:51:57;5.45;;;2.22;;
19617;SDS011;9956;51.006;13.670;2023-05-18T15:56:57;6.30;;;4.50;;
19617;SDS011;9956;51.006;13.670;2023-05-18T16:01:57;5.45;;;2.40;;
19617;SDS011;9956;51.006;13.670;2023-05-18T16:06:58;6.53;;;2.17;;
19617;SDS011;9956;51.006;13.670;2023-05-18T16:11:58;4.72;;;3.10;;
19617;SDS011;9956;51.006;13.670;2023-05-18T16:16:59;4.72;;;2.08;;
19617;SDS011;9956;51.006;13.670;2023-05-18T16:22:00;6.55;;;3.00;;
19617;SDS011;9956;51.006;13.670;2023-05-18T16:27:00;5.07;;;2.00;;
19617;SDS011;9956;51.006;13.670;2023-05-18T16:32:01;4.03;;;2.40;;
19617;SDS011;9956;51.006;13.670;2023-05-18T16:37:01;6.00;;;2.05;;
19617;SDS011;9956;51.006;13.670;2023-05-18T16:42:02;6.18;;;2.20;;
19617;SDS011;9956;51.006;13.670;2023-05-18T16:47:02;4.65;;;2.03;;
19617;SDS011;9956;51.006;13.670;2023-05-18T16:52:09;3.28;;;1.80;;
19617;SDS011;9956;51.006;13.670;2023-05-18T16:57:10;3.10;;;2.03;;
19617;SDS011;9956;51.006;13.670;2023-05-18T17:02:12;4.50;;;1.90;;
19617;SDS011;9956;51.006;13.670;2023-05-18T17:07:13;7.72;;;2.35;;
19617;SDS011;9956;51.006;13.670;2023-05-18T17:12:13;4.53;;;1.40;;
19617;SDS011;9956;51.006;13.670;2023-05-18T17:17:14;3.60;;;1.98;;
19617;SDS011;9956;51.006;13.670;2023-05-18T17:22:14;4.20;;;1.95;;
19617;SDS011;9956;51.006;13.670;2023-05-18T17:27:15;5.03;;;1.58;;
19617;SDS011;9956;51.006;13.670;2023-05-18T17:32:15;4.63;;;2.03;;
19617;SDS011;9956;51.006;13.670;2023-05-18T17:37:16;4.00;;;2.00;;
19617;SDS011;9956;51.006;13.670;2023-05-18T17:42:18;4.32;;;2.00;;
19617;SDS011;9956;51.006;13.670;2023-05-18T17:47:18;3.78;;;1.88;;
19617;SDS011;9956;51.006;13.670;2023-05-18T17:52:20;5.15;;;1.95;;
19617;SDS011;9956;51.006;13.670;2023-05-18T17:57:21;5.60;;;2.30;;
19617;SDS011;9956;51.006;13.670;2023-05-18T18:02:22;4.70;;;2.38;;
19617;SDS011;9956;51.006;13.670;2023-05-18T18:07:22;4.85;;;2.10;;
19617;SDS011;9956;51.006;13.670;2023-05-18T18:12:22;4.47;;;2.25;;
19617;SDS011;9956;51.006;13.670;2023-05-18T18:17:23;8.65;;;3.78;;
19617;SDS011;9956;51.006;13.670;2023-05-18T18:22:23;9.23;;;3.78;;
19617;SDS011;9956;51.006;13.670;2023-05-18T18:27:24;5.43;;;2.40;;
19617;SDS011;9956;51.006;13.670;2023-05-18T18:32:27;4.55;;;2.05;;
19617;SDS011;9956;51.006;13.670;2023-05-18T18:37:28;12.52;;;8.52;;
19617;SDS011;9956;51.006;13.670;2023-05-18T18:42:28;3.60;;;1.80;;
19617;SDS011;9956;51.006;13.670;2023-05-18T18:47:29;4.65;;;2.95;;
19617;SDS011;9956;51.006;13.670;2023-05-18T18:52:30;6.07;;;2.50;;
19617;SDS011;9956;51.006;13.670;2023-05-18T18:57:30;8.07;;;5.15;;
19617;SDS011;9956;51.006;13.670;2023-05-18T19:02:32;5.03;;;3.33;;
19617;SDS011;9956;51.006;13.670;2023-05-18T19:07:32;10.38;;;2.97;;
19617;SDS011;9956;51.006;13.670;2023-05-18T19:12:33;5.00;;;3.25;;
19617;SDS011;9956;51.006;13.670;2023-05-18T19:17:34;7.30;;;3.10;;
19617;SDS011;9956;51.006;13.670;2023-05-18T19:22:34;7.28;;;3.17;;
19617;SDS011;9956;51.006;13.670;2023-05-18T19:27:35;7.00;;;3.90;;
19617;SDS011;9956;51.006;13.670;2023-05-18T19:32:35;5.80;;;3.10;;
19617;SDS011;9956;51.006;13.670;2023-05-18T19:37:36;4.43;;;3.03;;
19617;SDS011;9956;51.006;13.670;2023-05-18T19:42:43;4.40;;;2.92;;
19617;SDS011;9956;51.006;13.670;2023-05-18T19:47:43;7.95;;;6.40;;
19617;SDS011;9956;51.006;13.670;2023-05-18T19:52:46;6.40;;;3.50;;
19617;SDS011;9956;51.006;13.670;2023-05-18T19:57:48;5.30;;;3.72;;
19617;SDS011;9956;51.006;13.670;2023-05-18T20:02:49;7.47;;;2.95;;
19617;SDS011;9956;51.006;13.670;2023-05-18T20:07:50;19.95;;;15.68;;
19617;SDS011;9956;51.006;13.670;2023-05-18T20:12:51;6.35;;;3.15;;
19617;SDS011;9956;51.006;13.670;2023-05-18T20:17:51;4.72;;;3.05;;
19617;SDS011;9956;51.006;13.670;2023-05-18T20:22:52;4.25;;;2.60;;
19617;SDS011;9956;51.006;13.670;2023-05-18T20:27:52;7.25;;;3.47;;
19617;SDS011;9956;51.006;13.670;2023-05-18T20:32:55;8.35;;;3.60;;
19617;SDS011;9956;51.006;13.670;2023-05-18T20:37:58;13.43;;;6.20;;
19617;SDS011;9956;51.006;13.670;2023-05-18T20:42:58;10.27;;;4.10;;
19617;SDS011;9956;51.006;13.670;2023-05-18T20:48:01;6.28;;;3.00;;
19617;SDS011;9956;51.006;13.670;2023-05-18T20:53:02;6.38;;;3.33;;
19617;SDS011;9956;51.006;13.670;2023-05-18T20:58:03;4.75;;;3.40;;
19617;SDS011;9956;51.006;13.670;2023-05-18T21:03:03;8.20;;;3.50;;
19617;SDS011;9956;51.006;13.670;2023-05-18T21:08:04;7.55;;;3.00;;
19617;SDS011;9956;51.006;13.670;2023-05-18T21:13:04;6.32;;;3.25;;
19617;SDS011;9956;51.006;13.670;2023-05-18T21:18:05;8.27;;;3.47;;
19617;SDS011;9956;51.006;13.670;2023-05-18T21:23:05;6.35;;;3.08;;
19617;SDS011;9956;51.006;13.670;2023-05-18T21:28:06;5.43;;;3.72;;
19617;SDS011;9956;51.006;13.670;2023-05-18T21:33:06;7.72;;;4.15;;
19617;SDS011;9956;51.006;13.670;2023-05-18T21:38:07;6.20;;;3.60;;
19617;SDS011;9956;51.006;13.670;2023-05-18T21:43:08;5.03;;;3.40;;
19617;SDS011;9956;51.006;13.670;2023-05-18T21:48:08;5.68;;;3.65;;
19617;SDS011;9956;51.006;13.670;2023-05-18T21:53:09;4.97;;;3.60;;
19617;SDS011;9956;51.006;13.670;2023-05-18T21:58:09;8.63;;;3.60;;
19617;SDS011;9956;51.006;13.670;2023-05-18T22:03:10;8.10;;;3.85;;
19617;SDS011;9956;51.006;13.670;2023-05-18T22:08:10;7.22;;;4.43;;
19617;SDS011;9956;51.006;13.670;2023-05-18T22:13:11;5.63;;;3.92;;
19617;SDS011;9956;51.006;13.670;2023-05-18T22:18:12;5.53;;;3.80;;
19617;SDS011;9956;51.006;13.670;2023-05-18T22:23:12;6.60;;;4.00;;
19617;SDS011;9956;51.006;13.670;2023-05-18T22:28:13;6.28;;;3.42;;
19617;SDS011;9956;51.006;13.670;2023-05-18T22:33:16;9.30;;;3.88;;
19617;SDS011;9956;51.006;13.670;2023-05-18T22:38:17;5.53;;;3.20;;
19617;SDS011;9956;51.006;13.670;2023-05-18T22:43:17;5.18;;;3.25;;
19617;SDS011;9956;51.006;13.670;2023-05-18T22:48:18;5.35;;;3.10;;
19617;SDS011;9956;51.006;13.670;2023-05-18T22:53:18;5.68;;;3.75;;
19617;SDS011;9956;51.006;13.670;2023-05-18T22:58:18;6.78;;;3.25;;
19617;SDS011;9956;51.006;13.670;2023-05-18T23:03:19;6.15;;;3.33;;
19617;SDS011;9956;51.006;13.670;2023-05-18T23:08:19;5.55;;;3.83;;
19617;SDS011;9956;51.006;13.670;2023-05-18T23:13:20;6.18;;;3.42;;
19617;SDS011;9956;51.006;13.670;2023-05-18T23:23:57;6.40;;;3.10;;
19617;SDS011;9956;51.006;13.670;2023-05-18T23:28:58;6.65;;;4.28;;
19617;SDS011;9956;51.006;13.670;2023-05-18T23:33:59;6.53;;;3.85;;
19617;SDS011;9956;51.006;13.670;2023-05-18T23:39:00;8.13;;;3.90;;
19617;SDS011;9956;51.006;13.670;2023-05-18T23:44:00;6.85;;;4.07;;
19617;SDS011;9956;51.006;13.670;2023-05-18T23:49:01;4.80;;;3.63;;
19617;SDS011;9956;51.006;13.670;2023-05-18T23:54:03;6.40;;;4.00;;
19617;SDS011;9956;51.006;13.670;2023-05-18T23:59:06;10.65;;;5.70;;
